This is the latest recevied weather packets stored in our database for station/object NG6B-2. If no packets are shown the sender has not sent any weather packets the latest 1 day(s).
| Time | Temp. | Humidity | Pressure | Rain* | Wind** | Luminosity | Snow |
|---|---|---|---|---|---|---|---|
| 1778094355 | 22.78° C | 27% | 1009.4 hPa | 0 mm | - | - | - |
| 1778088952 | 21.11° C | 31% | 1009.7 hPa | 0 mm | - | - | - |
| 1778085350 | 19.44° C | 34% | 1009.6 hPa | 0 mm | - | - | - |
| 1778083549 | 18.89° C | 41% | 1009.5 hPa | 0 mm | - | - | - |
| 1778079947 | 16.67° C | 49% | 1009.6 hPa | 0 mm | - | - | - |
| 1778072743 | 8.33° C | 79% | 1009.2 hPa | 0 mm | - | - | - |
| 1778070942 | 8.33° C | 78% | 1008.9 hPa | 0 mm | - | - | - |
| 1778069141 | 8.33° C | 78% | 1008.6 hPa | 0 mm | - | - | - |
| 1778067340 | 8.89° C | 76% | 1008.4 hPa | 0 mm | - | - | - |
| 1778065539 | 8.89° C | 76% | 1008.3 hPa | 0 mm | - | - | - |
| 1778063738 | 9.44° C | 73% | 1008.3 hPa | 0 mm | - | - | - |
| 1778061937 | 10° C | 70% | 1007.9 hPa | 0 mm | - | - | - |
| 1778060136 | 10.56° C | 70% | 1008 hPa | 0 mm | - | - | - |
| 1778054733 | 12.78° C | 62% | 1008 hPa | 0 mm | - | - | - |
| 1778052932 | 13.89° C | 58% | 1008 hPa | 0 mm | - | - | - |
| 1778051131 | 13.89° C | 58% | 1007.9 hPa | 0 mm | - | - | - |
| 1778049330 | 14.44° C | 59% | 1007.7 hPa | 0 mm | - | - | - |
| 1778047529 | 14.44° C | 58% | 1007.8 hPa | 0 mm | - | - | - |
| 1778045728 | 15.56° C | 55% | 1007.7 hPa | 0 mm | - | - | - |
| 1778043927 | 16.11° C | 50% | 1007.3 hPa | 0 mm | - | - | - |
| 1778042126 | 16.67° C | 48% | 1007 hPa | 0 mm | - | - | - |
| 1778040325 | 17.22° C | 43% | 1006.6 hPa | 0 mm | - | - | - |
| 1778038524 | 17.22° C | 42% | 1006.2 hPa | 0 mm | - | - | - |
| 1778036723 | 17.78° C | 39% | 1005.7 hPa | 0 mm | - | - | - |
| 1778034922 | 18.89° C | 37% | 1005.2 hPa | 0 mm | - | - | - |
* Rain latest hour (hover to see other rain measurements)
** Current wind speed in m/s (hover to see current wind gust speed)